createdAt,value
2023-04-30T00:02:18.873Z,19.41
2023-04-30T00:04:45.870Z,19.42
2023-04-30T00:07:12.717Z,19.44
2023-04-30T00:09:39.967Z,19.47
2023-04-30T00:12:06.774Z,19.48
2023-04-30T00:14:33.579Z,19.51
2023-04-30T00:17:00.480Z,19.51
2023-04-30T00:19:27.792Z,19.51
2023-04-30T00:21:54.512Z,19.51
2023-04-30T00:24:22.584Z,19.51
2023-04-30T00:26:49.750Z,19.51
2023-04-30T00:29:16.598Z,19.40
2023-04-30T00:31:43.685Z,19.30
2023-04-30T00:34:10.475Z,19.49
2023-04-30T00:36:37.188Z,19.44
2023-04-30T00:39:04.343Z,19.47
2023-04-30T00:41:31.122Z,19.51
2023-04-30T00:43:58.991Z,19.51
2023-04-30T00:46:26.009Z,19.54
2023-04-30T00:48:52.869Z,19.55
2023-04-30T00:51:19.696Z,19.56
2023-04-30T00:53:46.607Z,19.56
2023-04-30T00:56:13.756Z,19.57
2023-04-30T00:58:40.466Z,19.48
2023-04-30T01:01:07.375Z,19.57
2023-04-30T01:03:36.551Z,19.54
2023-04-30T01:06:03.566Z,19.55
2023-04-30T01:08:31.989Z,19.48
2023-04-30T01:10:58.720Z,19.52
2023-04-30T01:13:30.672Z,19.53
2023-04-30T01:16:00.986Z,19.52
2023-04-30T01:18:42.470Z,19.42
2023-04-30T01:21:09.402Z,19.52
2023-04-30T01:24:17.193Z,19.53
2023-04-30T01:27:20.992Z,19.53
2023-04-30T01:29:47.709Z,19.52
2023-04-30T01:32:14.665Z,19.52
2023-04-30T01:34:41.629Z,19.52
2023-04-30T01:37:52.732Z,19.36
2023-04-30T01:40:26.808Z,19.50
2023-04-30T01:43:05.736Z,19.50
2023-04-30T01:46:01.591Z,19.50
2023-04-30T01:48:43.400Z,19.47
2023-04-30T01:51:28.428Z,19.45
2023-04-30T01:54:01.118Z,19.27
2023-04-30T01:56:32.360Z,19.42
2023-04-30T01:58:59.777Z,19.41
2023-04-30T02:01:32.019Z,19.03
2023-04-30T02:03:59.219Z,19.37
2023-04-30T02:06:30.331Z,19.35
2023-04-30T02:09:02.639Z,19.25
2023-04-30T02:11:29.993Z,19.32
2023-04-30T02:13:56.940Z,19.30
2023-04-30T02:16:24.256Z,19.26
2023-04-30T02:18:51.565Z,19.20
2023-04-30T02:21:18.716Z,19.25
2023-04-30T02:23:45.442Z,19.19
2023-04-30T02:26:12.174Z,19.28
2023-04-30T02:28:39.168Z,19.24
2023-04-30T02:31:06.143Z,18.75
2023-04-30T02:33:32.910Z,19.18
2023-04-30T02:36:00.678Z,19.30
2023-04-30T02:38:27.496Z,19.16
2023-04-30T02:40:54.388Z,19.28
2023-04-30T02:43:21.203Z,19.31
2023-04-30T02:45:48.391Z,19.31
2023-04-30T02:48:15.404Z,19.29
2023-04-30T02:50:42.188Z,19.18
2023-04-30T02:53:08.951Z,19.16
2023-04-30T02:55:35.770Z,19.26
2023-04-30T02:58:02.594Z,19.00
2023-04-30T03:00:29.386Z,19.14
2023-04-30T03:02:56.390Z,19.13
2023-04-30T03:05:23.924Z,19.17
2023-04-30T03:07:50.809Z,19.18
2023-04-30T03:10:19.260Z,19.14
2023-04-30T03:12:46.338Z,19.11
2023-04-30T03:15:13.173Z,19.08
2023-04-30T03:17:40.053Z,18.59
2023-04-30T03:20:07.717Z,19.03
2023-04-30T03:22:34.436Z,19.00
2023-04-30T03:25:01.391Z,18.96
2023-04-30T03:27:28.314Z,18.96
2023-04-30T03:29:55.509Z,18.94
2023-04-30T03:32:22.784Z,18.92
2023-04-30T03:34:50.223Z,18.90
2023-04-30T03:37:17.037Z,18.49
2023-04-30T03:39:43.758Z,18.85
2023-04-30T03:42:10.721Z,18.83
2023-04-30T03:44:39.234Z,18.79
2023-04-30T03:47:06.063Z,18.72
2023-04-30T03:49:33.324Z,18.74
2023-04-30T03:52:00.058Z,18.73
2023-04-30T03:54:26.815Z,18.72
2023-04-30T03:56:53.693Z,18.69
2023-04-30T03:59:20.968Z,18.68
2023-04-30T04:01:47.839Z,18.40
2023-04-30T04:04:17.867Z,18.67
2023-04-30T04:06:44.792Z,18.65
2023-04-30T04:09:11.662Z,18.62
2023-04-30T04:11:38.552Z,18.60
2023-04-30T04:14:05.464Z,18.40
2023-04-30T04:16:32.269Z,18.53
2023-04-30T04:18:59.295Z,18.54
2023-04-30T04:21:26.014Z,18.54
2023-04-30T04:23:52.857Z,18.48
2023-04-30T04:26:21.782Z,18.50
2023-04-30T04:28:48.550Z,18.49
2023-04-30T04:31:16.075Z,18.46
2023-04-30T04:33:42.912Z,18.42
2023-04-30T04:36:10.305Z,18.22
2023-04-30T04:38:37.057Z,18.37
2023-04-30T04:41:03.864Z,18.32
2023-04-30T04:43:30.983Z,18.33
2023-04-30T04:45:57.845Z,18.25
2023-04-30T04:48:24.745Z,18.26
2023-04-30T04:50:51.587Z,18.22
2023-04-30T04:53:18.307Z,18.22
2023-04-30T04:55:45.106Z,18.07
2023-04-30T04:58:11.846Z,18.19
2023-04-30T05:00:39.486Z,17.94
2023-04-30T05:03:06.306Z,18.18
2023-04-30T05:05:33.140Z,17.97
2023-04-30T05:07:59.920Z,17.93
2023-04-30T05:10:26.631Z,18.00
2023-04-30T05:12:53.338Z,18.00
2023-04-30T05:15:20.275Z,18.11
2023-04-30T05:17:47.105Z,17.88
2023-04-30T05:20:13.901Z,17.46
2023-04-30T05:22:40.842Z,17.71
2023-04-30T05:25:07.993Z,17.81
2023-04-30T05:27:34.774Z,17.80
2023-04-30T05:30:01.837Z,17.98
2023-04-30T05:32:28.611Z,17.95
2023-04-30T05:34:55.821Z,17.90
2023-04-30T05:37:23.071Z,17.89
2023-04-30T05:39:49.836Z,17.87
2023-04-30T05:42:16.626Z,17.85
2023-04-30T05:44:43.504Z,17.74
2023-04-30T05:47:10.217Z,17.84
2023-04-30T05:49:36.956Z,17.83
2023-04-30T05:52:04.060Z,17.81
2023-04-30T05:54:31.200Z,17.60
2023-04-30T05:56:58.001Z,17.82
2023-04-30T05:59:25.107Z,17.81
2023-04-30T06:01:52.425Z,17.80
2023-04-30T06:04:19.184Z,17.10
2023-04-30T06:06:46.022Z,17.81
2023-04-30T06:09:12.864Z,17.83
2023-04-30T06:11:42.257Z,17.77
2023-04-30T06:14:09.541Z,17.86
2023-04-30T06:16:36.394Z,17.76
2023-04-30T06:19:03.408Z,17.90
2023-04-30T06:21:30.237Z,17.95
2023-04-30T06:23:57.081Z,18.00
2023-04-30T06:26:23.908Z,18.06
2023-04-30T06:28:50.629Z,17.98
2023-04-30T06:31:17.497Z,18.17
2023-04-30T06:33:44.405Z,18.28
2023-04-30T06:36:11.245Z,18.34
2023-04-30T06:38:38.059Z,18.39
2023-04-30T06:41:04.967Z,18.20
2023-04-30T06:43:32.383Z,18.29
2023-04-30T06:45:59.164Z,18.36
2023-04-30T06:48:26.149Z,18.56
2023-04-30T06:50:53.015Z,18.57
2023-04-30T06:53:19.945Z,18.38
2023-04-30T06:55:47.201Z,18.60
2023-04-30T06:58:14.089Z,18.62
2023-04-30T07:00:40.892Z,18.63
2023-04-30T07:03:08.316Z,18.54
2023-04-30T07:05:35.205Z,18.56
2023-04-30T07:08:02.413Z,18.65
2023-04-30T07:10:29.792Z,18.68
2023-04-30T07:12:56.737Z,18.49
2023-04-30T07:15:23.801Z,18.53
2023-04-30T07:17:50.754Z,18.66
2023-04-30T07:20:17.727Z,18.67
2023-04-30T07:22:46.171Z,18.67
2023-04-30T07:25:13.824Z,18.68
2023-04-30T07:27:41.004Z,18.65
2023-04-30T07:30:10.364Z,18.52
2023-04-30T07:32:37.658Z,18.70
2023-04-30T07:35:05.035Z,18.73
2023-04-30T07:37:34.203Z,18.63
2023-04-30T07:40:02.323Z,18.78
2023-04-30T07:42:29.179Z,18.81
2023-04-30T07:44:56.004Z,18.80
2023-04-30T07:47:22.879Z,18.73
2023-04-30T07:49:49.875Z,18.82
2023-04-30T07:52:16.606Z,18.95
2023-04-30T07:54:43.425Z,18.99
2023-04-30T07:57:10.308Z,19.02
2023-04-30T07:59:37.189Z,19.11
2023-04-30T08:02:04.093Z,19.16
2023-04-30T08:04:30.930Z,19.14
2023-04-30T08:06:57.843Z,19.30
2023-04-30T08:09:24.564Z,19.37
2023-04-30T08:11:51.397Z,19.32
2023-04-30T08:14:18.215Z,19.34
2023-04-30T08:16:44.984Z,19.70
2023-04-30T08:19:11.802Z,19.85
2023-04-30T08:21:38.869Z,19.75
2023-04-30T08:24:05.705Z,20.06
2023-04-30T08:26:32.437Z,20.10
2023-04-30T08:28:59.243Z,20.19
2023-04-30T08:31:26.116Z,20.23
2023-04-30T08:33:52.963Z,20.31
2023-04-30T08:36:19.950Z,20.48
2023-04-30T08:38:46.782Z,20.58
2023-04-30T08:41:14.353Z,20.70
2023-04-30T08:43:41.642Z,20.66
2023-04-30T08:46:09.721Z,20.66
2023-04-30T08:48:36.493Z,20.99
2023-04-30T08:51:03.947Z,21.09
2023-04-30T08:53:31.634Z,21.10
2023-04-30T08:55:58.537Z,21.27
2023-04-30T08:58:25.496Z,21.38
2023-04-30T09:00:52.384Z,21.47
2023-04-30T09:03:19.316Z,21.56
2023-04-30T09:05:46.325Z,21.81
2023-04-30T09:08:18.755Z,21.97
2023-04-30T09:10:45.615Z,22.13
2023-04-30T09:13:12.442Z,22.24
2023-04-30T09:15:41.748Z,22.29
2023-04-30T09:18:12.953Z,22.38
2023-04-30T09:20:53.920Z,22.70
2023-04-30T09:23:20.898Z,22.82
2023-04-30T09:25:47.628Z,22.84
2023-04-30T09:28:14.430Z,22.59
2023-04-30T09:30:42.928Z,23.20
2023-04-30T09:33:12.021Z,23.29
2023-04-30T09:35:40.382Z,23.41
2023-04-30T09:38:07.274Z,23.54
2023-04-30T09:40:43.223Z,23.66
2023-04-30T09:43:10.104Z,23.70
2023-04-30T09:45:44.788Z,23.83
2023-04-30T09:48:17.036Z,23.92
2023-04-30T09:50:48.036Z,23.97
2023-04-30T09:53:14.959Z,23.83
2023-04-30T09:55:44.297Z,23.90
2023-04-30T09:58:11.459Z,24.03
2023-04-30T10:00:39.958Z,23.72
2023-04-30T10:03:08.801Z,24.14
2023-04-30T10:05:43.339Z,24.19
2023-04-30T10:08:19.982Z,24.45
2023-04-30T10:10:47.781Z,24.55
2023-04-30T10:13:20.232Z,24.99
2023-04-30T10:15:50.672Z,25.30
2023-04-30T10:18:37.027Z,25.61
2023-04-30T10:21:04.414Z,25.88
2023-04-30T10:23:31.278Z,25.90
2023-04-30T10:25:58.119Z,26.30
2023-04-30T10:28:25.497Z,26.43
2023-04-30T10:30:52.210Z,26.63
2023-04-30T10:33:22.833Z,26.66
2023-04-30T10:35:54.166Z,26.84
2023-04-30T10:38:28.225Z,26.77
2023-04-30T10:41:03.912Z,27.11
2023-04-30T10:43:30.887Z,27.32
2023-04-30T10:45:58.862Z,27.48
2023-04-30T10:48:27.057Z,27.47
2023-04-30T10:50:56.560Z,27.50
2023-04-30T10:53:25.472Z,27.41
2023-04-30T10:55:58.480Z,27.79
2023-04-30T10:58:30.204Z,28.00
2023-04-30T11:01:12.279Z,28.17
2023-04-30T11:03:41.117Z,28.29
2023-04-30T11:06:14.959Z,28.36
2023-04-30T11:08:48.111Z,28.42
2023-04-30T11:11:18.790Z,28.41
2023-04-30T11:13:45.860Z,28.62
2023-04-30T11:16:12.734Z,28.73
2023-04-30T11:18:46.113Z,28.86
2023-04-30T11:21:13.346Z,28.97
2023-04-30T11:23:44.630Z,29.17
2023-04-30T11:26:11.578Z,29.14
2023-04-30T11:28:38.524Z,29.35
2023-04-30T11:31:05.640Z,29.41
2023-04-30T11:33:33.110Z,29.27
2023-04-30T11:36:00.754Z,29.57
2023-04-30T11:38:29.037Z,29.81
2023-04-30T11:40:57.074Z,29.82
2023-04-30T11:43:34.141Z,30.05
2023-04-30T11:46:09.571Z,29.95
2023-04-30T11:48:38.365Z,30.08
2023-04-30T11:51:14.306Z,30.10
2023-04-30T11:53:41.680Z,30.23
2023-04-30T11:56:08.710Z,30.25
2023-04-30T11:58:38.175Z,30.25
2023-04-30T12:01:06.721Z,29.76
2023-04-30T12:03:33.927Z,30.02
2023-04-30T12:06:01.762Z,30.16
2023-04-30T12:08:28.847Z,30.26
2023-04-30T12:10:55.648Z,30.28
2023-04-30T12:13:22.625Z,30.48
2023-04-30T12:15:59.977Z,30.56
2023-04-30T12:18:27.291Z,30.71
2023-04-30T12:20:54.412Z,30.91
2023-04-30T12:23:21.237Z,31.14
2023-04-30T12:25:48.127Z,31.55
2023-04-30T12:28:14.893Z,31.85
2023-04-30T12:30:41.797Z,32.18
2023-04-30T12:33:10.366Z,32.50
2023-04-30T12:35:37.520Z,32.73
2023-04-30T12:38:05.686Z,33.16
2023-04-30T12:40:32.622Z,33.63
2023-04-30T12:43:07.144Z,34.30
2023-04-30T12:45:53.504Z,34.43
2023-04-30T12:48:24.683Z,34.64
2023-04-30T12:50:55.692Z,34.97
2023-04-30T12:53:23.215Z,35.20
2023-04-30T12:56:09.764Z,35.63
2023-04-30T12:58:38.235Z,35.83
2023-04-30T13:01:06.252Z,35.85
2023-04-30T13:03:33.186Z,35.03
2023-04-30T13:06:02.881Z,34.04
2023-04-30T13:08:29.776Z,33.10
2023-04-30T13:10:56.565Z,32.11
2023-04-30T13:13:23.318Z,31.36
2023-04-30T13:15:50.129Z,30.62
2023-04-30T13:18:17.047Z,29.91
2023-04-30T13:20:44.016Z,29.29
2023-04-30T13:23:12.121Z,28.74
2023-04-30T13:25:39.155Z,28.30
2023-04-30T13:28:05.920Z,27.88
2023-04-30T13:30:32.696Z,27.54
2023-04-30T13:33:00.004Z,27.05
2023-04-30T13:35:27.534Z,27.01
2023-04-30T13:37:54.887Z,26.62
2023-04-30T13:40:21.940Z,26.49
2023-04-30T13:42:49.280Z,26.23
2023-04-30T13:45:16.467Z,26.22
2023-04-30T13:47:43.496Z,25.99
2023-04-30T13:50:10.910Z,25.93
2023-04-30T13:52:37.680Z,25.61
2023-04-30T13:55:05.968Z,25.67
2023-04-30T13:57:35.542Z,25.60
2023-04-30T14:00:02.514Z,25.50
2023-04-30T14:02:29.678Z,25.34
2023-04-30T14:05:05.288Z,25.35
2023-04-30T14:07:33.323Z,25.31
2023-04-30T14:10:00.097Z,25.24
2023-04-30T14:12:26.850Z,25.14
2023-04-30T14:14:53.793Z,25.09
2023-04-30T14:17:20.810Z,25.02
2023-04-30T14:19:47.641Z,24.88
2023-04-30T14:22:14.817Z,24.92
2023-04-30T14:24:41.524Z,24.70
2023-04-30T14:27:08.368Z,24.77
2023-04-30T14:29:37.490Z,24.75
2023-04-30T14:32:06.169Z,24.65
2023-04-30T14:34:33.122Z,24.58
2023-04-30T14:37:01.958Z,24.52
2023-04-30T14:39:28.726Z,24.48
2023-04-30T14:41:55.477Z,24.42
2023-04-30T14:44:25.173Z,24.35
2023-04-30T14:46:52.223Z,24.13
2023-04-30T14:49:20.125Z,24.22
2023-04-30T14:51:47.050Z,24.10
2023-04-30T14:54:13.837Z,24.06
2023-04-30T14:56:41.216Z,23.70
2023-04-30T14:59:08.073Z,23.91
2023-04-30T15:01:34.957Z,23.76
2023-04-30T15:04:02.423Z,23.54
2023-04-30T15:06:29.290Z,23.62
2023-04-30T15:08:56.284Z,23.51
2023-04-30T15:11:24.271Z,23.39
2023-04-30T15:13:51.111Z,23.34
2023-04-30T15:16:18.255Z,23.21
2023-04-30T15:18:45.108Z,23.21
2023-04-30T15:21:12.651Z,23.15
2023-04-30T15:23:39.407Z,23.12
2023-04-30T15:26:06.518Z,23.06
2023-04-30T15:28:33.321Z,22.94
2023-04-30T15:31:06.424Z,22.94
2023-04-30T15:33:34.850Z,22.96
2023-04-30T15:36:01.707Z,22.87
2023-04-30T15:38:28.436Z,22.76
2023-04-30T15:40:55.368Z,22.86
2023-04-30T15:43:22.165Z,22.87
2023-04-30T15:45:49.583Z,22.71
2023-04-30T15:48:16.426Z,22.93
2023-04-30T15:50:43.222Z,22.84
2023-04-30T15:53:10.109Z,22.93
2023-04-30T15:55:37.343Z,22.91
2023-04-30T15:58:04.720Z,22.91
2023-04-30T16:00:31.637Z,22.90
2023-04-30T16:02:58.490Z,22.82
2023-04-30T16:05:25.461Z,22.84
2023-04-30T16:07:53.561Z,22.77
2023-04-30T16:10:20.516Z,22.50
2023-04-30T16:12:47.534Z,22.70
2023-04-30T16:15:15.335Z,22.69
2023-04-30T16:17:42.116Z,22.57
2023-04-30T16:20:09.433Z,22.59
2023-04-30T16:22:37.414Z,22.47
2023-04-30T16:25:04.645Z,22.69
2023-04-30T16:27:31.525Z,22.68
2023-04-30T16:29:58.500Z,22.67
2023-04-30T16:32:25.515Z,22.65
2023-04-30T16:34:54.707Z,22.64
2023-04-30T16:37:21.451Z,22.62
2023-04-30T16:39:48.186Z,22.60
2023-04-30T16:42:15.053Z,22.58
2023-04-30T16:44:41.855Z,22.57
2023-04-30T16:47:09.301Z,22.35
2023-04-30T16:49:36.133Z,22.52
2023-04-30T16:52:03.256Z,22.41
2023-04-30T16:54:30.079Z,22.48
2023-04-30T16:56:57.011Z,22.46
2023-04-30T16:59:24.839Z,22.43
2023-04-30T17:01:51.670Z,22.42
2023-04-30T17:04:18.627Z,22.41
2023-04-30T17:06:46.635Z,22.40
2023-04-30T17:09:13.507Z,22.39
2023-04-30T17:11:40.309Z,22.39
2023-04-30T17:14:07.065Z,22.40
2023-04-30T17:16:33.869Z,22.39
2023-04-30T17:19:01.464Z,22.40
2023-04-30T17:21:29.839Z,22.40
2023-04-30T17:23:56.718Z,22.15
2023-04-30T17:26:25.203Z,22.14
2023-04-30T17:28:51.935Z,22.37
2023-04-30T17:31:19.306Z,22.12
2023-04-30T17:33:46.496Z,22.28
2023-04-30T17:36:13.410Z,22.25
2023-04-30T17:38:40.170Z,22.20
2023-04-30T17:41:07.038Z,22.04
2023-04-30T17:43:33.859Z,22.10
2023-04-30T17:46:00.648Z,22.07
2023-04-30T17:48:27.533Z,22.05
2023-04-30T17:50:54.642Z,21.94
2023-04-30T17:53:21.373Z,21.91
2023-04-30T17:55:48.673Z,21.86
2023-04-30T17:58:16.083Z,21.67
2023-04-30T18:00:43.595Z,21.74
2023-04-30T18:03:10.895Z,21.64
2023-04-30T18:05:39.288Z,21.75
2023-04-30T18:08:06.654Z,21.73
2023-04-30T18:10:33.532Z,21.73
2023-04-30T18:13:00.410Z,21.68
2023-04-30T18:15:27.717Z,21.52
2023-04-30T18:17:54.721Z,21.53
2023-04-30T18:20:22.161Z,21.11
2023-04-30T18:22:49.120Z,21.36
2023-04-30T18:25:17.488Z,21.14
2023-04-30T18:27:44.456Z,21.25
2023-04-30T18:30:12.708Z,20.93
2023-04-30T18:32:39.824Z,21.06
2023-04-30T18:35:06.932Z,21.12
2023-04-30T18:37:33.992Z,21.13
2023-04-30T18:40:00.957Z,20.99
2023-04-30T18:42:28.546Z,21.13
2023-04-30T18:44:56.477Z,21.01
2023-04-30T18:47:23.901Z,21.19
2023-04-30T18:49:50.750Z,21.18
2023-04-30T18:52:17.498Z,21.18
2023-04-30T18:54:44.641Z,21.17
2023-04-30T18:57:14.922Z,21.17
2023-04-30T18:59:42.184Z,21.16
2023-04-30T19:02:09.698Z,21.18
2023-04-30T19:04:36.904Z,21.15
2023-04-30T19:07:04.116Z,21.08
2023-04-30T19:09:30.930Z,21.10
2023-04-30T19:11:58.088Z,21.03
2023-04-30T19:14:26.332Z,20.99
2023-04-30T19:16:53.408Z,20.75
2023-04-30T19:19:20.211Z,20.88
2023-04-30T19:21:47.073Z,20.84
2023-04-30T19:24:13.988Z,20.81
2023-04-30T19:26:42.782Z,20.68
2023-04-30T19:29:09.529Z,20.48
2023-04-30T19:31:36.624Z,20.67
2023-04-30T19:34:03.927Z,20.59
2023-04-30T19:36:30.671Z,20.54
2023-04-30T19:38:57.674Z,20.46
2023-04-30T19:41:24.597Z,20.40
2023-04-30T19:43:53.582Z,20.34
2023-04-30T19:46:21.385Z,20.27
2023-04-30T19:48:48.209Z,20.20
2023-04-30T19:51:15.392Z,20.06
2023-04-30T19:53:42.426Z,19.76
2023-04-30T19:56:09.754Z,20.03
2023-04-30T19:58:36.541Z,19.99
2023-04-30T20:01:03.703Z,19.74
2023-04-30T20:03:30.676Z,19.90
2023-04-30T20:05:58.436Z,19.48
2023-04-30T20:08:25.418Z,19.79
2023-04-30T20:10:52.282Z,19.76
2023-04-30T20:13:21.069Z,19.76
2023-04-30T20:15:48.761Z,19.73
2023-04-30T20:18:15.580Z,19.69
2023-04-30T20:20:42.393Z,19.65
2023-04-30T20:23:16.395Z,19.46
2023-04-30T20:25:46.779Z,19.41
2023-04-30T20:28:14.613Z,19.55
2023-04-30T20:30:44.820Z,19.49
2023-04-30T20:33:12.366Z,19.45
2023-04-30T20:35:40.880Z,19.32
2023-04-30T20:38:08.544Z,19.34
2023-04-30T20:40:35.337Z,19.38
2023-04-30T20:43:02.151Z,19.14
2023-04-30T20:45:29.015Z,19.20
2023-04-30T20:47:56.091Z,19.31
2023-04-30T20:50:22.911Z,19.28
2023-04-30T20:52:49.697Z,19.26
2023-04-30T20:55:16.460Z,18.89
2023-04-30T20:57:43.407Z,19.16
2023-04-30T21:00:10.843Z,18.97
2023-04-30T21:02:37.918Z,19.18
2023-04-30T21:05:06.175Z,18.92
2023-04-30T21:07:34.686Z,19.15
2023-04-30T21:10:02.269Z,19.13
2023-04-30T21:12:29.134Z,18.81
2023-04-30T21:14:56.430Z,19.10
2023-04-30T21:17:23.342Z,19.07
2023-04-30T21:19:50.100Z,19.08
2023-04-30T21:22:16.955Z,19.05
2023-04-30T21:24:44.146Z,19.05
2023-04-30T21:27:11.140Z,18.79
2023-04-30T21:29:38.005Z,18.79
2023-04-30T21:32:05.099Z,19.02
2023-04-30T21:34:32.260Z,19.00
2023-04-30T21:37:00.069Z,18.81
2023-04-30T21:39:27.197Z,18.97
2023-04-30T21:41:54.026Z,18.81
2023-04-30T21:44:20.948Z,18.83
2023-04-30T21:46:47.885Z,18.82
2023-04-30T21:49:15.432Z,18.70
2023-04-30T21:51:42.325Z,18.84
2023-04-30T21:54:09.045Z,18.89
2023-04-30T21:56:36.714Z,18.87
2023-04-30T21:59:03.629Z,18.60
2023-04-30T22:01:30.494Z,18.74
2023-04-30T22:03:57.395Z,18.86
2023-04-30T22:06:24.320Z,18.85
2023-04-30T22:08:51.214Z,18.84
2023-04-30T22:11:18.523Z,18.58
2023-04-30T22:13:45.416Z,18.66
2023-04-30T22:16:12.450Z,18.76
2023-04-30T22:18:39.951Z,18.72
2023-04-30T22:21:06.935Z,18.67
2023-04-30T22:23:33.748Z,18.67
2023-04-30T22:26:01.323Z,18.67
2023-04-30T22:28:28.175Z,18.66
2023-04-30T22:30:59.798Z,18.48
2023-04-30T22:33:26.718Z,18.59
2023-04-30T22:35:53.744Z,18.39
2023-04-30T22:38:21.241Z,18.63
2023-04-30T22:40:47.952Z,18.53
2023-04-30T22:43:14.880Z,18.39
2023-04-30T22:45:41.762Z,18.36
2023-04-30T22:48:09.854Z,18.54
2023-04-30T22:50:37.709Z,18.61
2023-04-30T22:53:04.591Z,18.29
2023-04-30T22:55:31.732Z,18.62
2023-04-30T22:58:00.242Z,18.59
2023-04-30T23:00:27.967Z,18.59
2023-04-30T23:02:55.079Z,18.47
2023-04-30T23:05:21.993Z,18.53
2023-04-30T23:07:49.605Z,18.54
2023-04-30T23:10:16.879Z,18.47
2023-04-30T23:12:43.882Z,18.01
2023-04-30T23:15:10.983Z,18.47
2023-04-30T23:17:37.780Z,18.46
2023-04-30T23:20:05.115Z,18.14
2023-04-30T23:22:31.894Z,18.41
2023-04-30T23:24:58.677Z,18.38
2023-04-30T23:27:28.463Z,18.37
2023-04-30T23:29:56.480Z,18.27
2023-04-30T23:32:23.643Z,18.36
2023-04-30T23:34:50.560Z,18.21
2023-04-30T23:37:17.324Z,18.33
2023-04-30T23:39:44.100Z,18.33
2023-04-30T23:42:11.791Z,18.29
2023-04-30T23:44:38.562Z,18.14
2023-04-30T23:47:06.710Z,18.10
2023-04-30T23:49:33.748Z,18.06
2023-04-30T23:52:00.548Z,18.04
2023-04-30T23:54:27.392Z,17.96
2023-04-30T23:56:54.501Z,17.96
2023-04-30T23:59:22.144Z,18.01
